Butterfly — C6UP2 — position and weather

sailwx.info

Track history (hours):
 
Tides and Currents Weather Stations Pressure Air Temp Water Temp Dewpoint Dewpoint Depression Visibility Wind Speed Wind Dir Waves Ship Positions

Butterfly

Last reported at 2017-Oct-23 21:55 UTC. Time now 2017-Nov-24 16:36 UTC.
Position N 29°29' W 094°52'.
Warning: this ship's position is 31 days out of date.

Length 182 m; draft 10.9 m.

Type: Ship. MMSI: 311985000.

Date/timePositionNaut miles runAvg speedWind from/ knotsBaromVisibWave heightAir tempDewpointWater temp
2017-Oct-23 21:55N 29°29' W 094°52'511.1
2017-Oct-23 21:30N 29°33' W 094°54'510.9
2017-Oct-23 21:00N 29°37' W 094°58'510.1
2017-Oct-23 20:30N 29°42' W 095°00'4 7.2
2017-Oct-23 20:00N 29°44' W 095°03'3 5.2
2017-Oct-23 19:30N 29°44' W 095°06'3 5.4
2017-Oct-23 18:59N 29°45' W 095°10'3 4.7
2017-Oct-23 18:24N 29°44' W 095°13'1 1.2
2017-Oct-23 17:58N 29°44' W 095°13'0 0.0
2017-Oct-23 17:10N 29°44' W 095°13'0 0.0
2017-Oct-23 16:52N 29°44' W 095°13'0 0.0
2017-Oct-23 15:28N 29°44' W 095°13'0 0.0
2017-Oct-23 14:58N 29°44' W 095°13'0 0.0
2017-Oct-23 14:22N 29°44' W 095°13'0 0.0
2017-Oct-23 13:58N 29°44' W 095°13'0 0.0
2017-Oct-23 08:04N 29°44' W 095°13'0 0.0
2017-Oct-23 07:58N 29°44' W 095°13'0 0.0
2017-Oct-22 11:19N 29°44' W 095°13'0 0.0
2017-Oct-22 10:10N 29°44' W 095°13'0 0.0
2017-Oct-22 09:55N 29°44' W 095°13'0 0.0
2017-Oct-22 09:28N 29°44' W 095°13'0 0.0
2017-Oct-22 08:58N 29°44' W 095°13'0 0.0
2017-Oct-22 07:40N 29°44' W 095°13'0 0.0
2017-Oct-22 07:25N 29°44' W 095°13'0 0.0
2017-Oct-22 06:49N 29°44' W 095°13'0 0.0
2017-Oct-22 04:19N 29°44' W 095°13'0 0.0
2017-Oct-21 11:40N 29°44' W 095°13'0 0.0
2017-Oct-21 11:28N 29°44' W 095°13'0 0.0
2017-Oct-21 10:58N 29°44' W 095°13'0 0.0
2017-Oct-21 08:13N 29°44' W 095°13'0 0.0
2017-Oct-21 07:16N 29°44' W 095°13'0 0.0
2017-Oct-21 05:55N 29°44' W 095°13'0 0.0
2017-Oct-21 05:28N 29°44' W 095°13'0 0.0
2017-Oct-21 04:55N 29°44' W 095°13'0 0.0
2017-Oct-21 04:25N 29°44' W 095°13'0 0.0
2017-Oct-21 03:36N 29°44' W 095°13'0 0.0
2017-Oct-21 03:30N 29°44' W 095°13'0 0.5
2017-Oct-21 03:00N 29°44' W 095°13'1 1.9
2017-Oct-21 02:30N 29°44' W 095°12'3 5.5
2017-Oct-21 02:00N 29°44' W 095°09'3 6.5
2017-Oct-21 01:30N 29°45' W 095°06'3 6.5
2017-Oct-21 01:00N 29°44' W 095°02'4 8.5
2017-Oct-21 00:30N 29°41' W 094°59'612.3
2017-Oct-21 00:00N 29°35' W 094°56'612.9
2017-Oct-20 23:30N 29°30' W 094°52'713.9
2017-Oct-20 23:00N 29°24' W 094°49'  
2017-Oct-18 09:50N 29°18' W 094°30'0 0.0
2017-Oct-18 09:26N 29°18' W 094°30'0 0.0
2017-Oct-18 08:29N 29°18' W 094°30'  
2017-Oct-14 05:50N 29°18' W 094°30'  
Track history (hours):
 
Tides and Currents Weather Stations Pressure Air Temp Water Temp Dewpoint Dewpoint Depression Visibility Wind Speed Wind Dir Waves Ship Positions

Butterfly

Last reported at 2017-Oct-23 21:55 UTC. Time now 2017-Nov-24 16:36 UTC.
Position N 29°29' W 094°52'.
Warning: this ship's position is 31 days out of date.

Length 182 m; draft 10.9 m.

Type: Ship. MMSI: 311985000.

Date/timePositionNaut miles runAvg speedWind from/ knotsBaromVisibWave heightAir tempDewpointWater temp
2017-Oct-23 21:55N 29°29' W 094°52'511.1
2017-Oct-23 21:30N 29°33' W 094°54'510.9
2017-Oct-23 21:00N 29°37' W 094°58'510.1
2017-Oct-23 20:30N 29°42' W 095°00'4 7.2
2017-Oct-23 20:00N 29°44' W 095°03'3 5.2
2017-Oct-23 19:30N 29°44' W 095°06'3 5.4
2017-Oct-23 18:59N 29°45' W 095°10'3 4.7
2017-Oct-23 18:24N 29°44' W 095°13'1 1.2
2017-Oct-23 17:58N 29°44' W 095°13'0 0.0
2017-Oct-23 17:10N 29°44' W 095°13'0 0.0
2017-Oct-23 16:52N 29°44' W 095°13'0 0.0
2017-Oct-23 15:28N 29°44' W 095°13'0 0.0
2017-Oct-23 14:58N 29°44' W 095°13'0 0.0
2017-Oct-23 14:22N 29°44' W 095°13'0 0.0
2017-Oct-23 13:58N 29°44' W 095°13'0 0.0
2017-Oct-23 08:04N 29°44' W 095°13'0 0.0
2017-Oct-23 07:58N 29°44' W 095°13'0 0.0
2017-Oct-22 11:19N 29°44' W 095°13'0 0.0
2017-Oct-22 10:10N 29°44' W 095°13'0 0.0
2017-Oct-22 09:55N 29°44' W 095°13'0 0.0
2017-Oct-22 09:28N 29°44' W 095°13'0 0.0
2017-Oct-22 08:58N 29°44' W 095°13'0 0.0
2017-Oct-22 07:40N 29°44' W 095°13'0 0.0
2017-Oct-22 07:25N 29°44' W 095°13'0 0.0
2017-Oct-22 06:49N 29°44' W 095°13'0 0.0
2017-Oct-22 04:19N 29°44' W 095°13'0 0.0
2017-Oct-21 11:40N 29°44' W 095°13'0 0.0
2017-Oct-21 11:28N 29°44' W 095°13'0 0.0
2017-Oct-21 10:58N 29°44' W 095°13'0 0.0
2017-Oct-21 08:13N 29°44' W 095°13'0 0.0
2017-Oct-21 07:16N 29°44' W 095°13'0 0.0
2017-Oct-21 05:55N 29°44' W 095°13'0 0.0
2017-Oct-21 05:28N 29°44' W 095°13'0 0.0
2017-Oct-21 04:55N 29°44' W 095°13'0 0.0
2017-Oct-21 04:25N 29°44' W 095°13'0 0.0
2017-Oct-21 03:36N 29°44' W 095°13'0 0.0
2017-Oct-21 03:30N 29°44' W 095°13'0 0.5
2017-Oct-21 03:00N 29°44' W 095°13'1 1.9
2017-Oct-21 02:30N 29°44' W 095°12'3 5.5
2017-Oct-21 02:00N 29°44' W 095°09'3 6.5
2017-Oct-21 01:30N 29°45' W 095°06'3 6.5
2017-Oct-21 01:00N 29°44' W 095°02'4 8.5
2017-Oct-21 00:30N 29°41' W 094°59'612.3
2017-Oct-21 00:00N 29°35' W 094°56'612.9
2017-Oct-20 23:30N 29°30' W 094°52'713.9
2017-Oct-20 23:00N 29°24' W 094°49'  
2017-Oct-18 09:50N 29°18' W 094°30'0 0.0
2017-Oct-18 09:26N 29°18' W 094°30'0 0.0
2017-Oct-18 08:29N 29°18' W 094°30'  
2017-Oct-14 05:50N 29°18' W 094°30'  

Dump ship's entire track history